Time;durP1;ratioP1;P1;durP2;ratioP2;P2;SDS_P1;SDS_P2;PMS_P1;PMS_P2;Temp;Humidity;BMP_temperature;BMP_pressure;BME280_temperature;BME280_humidity;BME280_pressure;Samples;Min_cycle;Max_cycle;Signal;HPM_P1;HPM_P2
2023/09/05 00:01:20;;;;;;;3.30;3.00;;;;;;;25.92;38.29;100855.70;103221;1297;69314;-87
2023/09/05 00:03:46;;;;;;;3.10;2.80;;;;;;;25.92;38.13;100857.71;103363;1297;70070;-88
2023/09/05 00:06:11;;;;;;;3.40;3.10;;;;;;;25.91;38.27;100856.94;103341;1297;69287;-87
2023/09/05 00:08:38;;;;;;;3.60;3.30;;;;;;;25.91;38.35;100853.52;103338;1297;69287;-87
2023/09/05 00:11:04;;;;;;;3.50;3.20;;;;;;;25.91;38.14;100861.01;103369;1302;69220;-87
2023/09/05 00:13:29;;;;;;;3.30;3.00;;;;;;;25.91;37.98;100863.96;103463;1297;69532;-88
2023/09/05 00:15:57;;;;;;;3.80;2.90;;;;;;;25.91;38.17;100859.16;103309;1297;68782;-88
2023/09/05 00:18:22;;;;;;;3.50;3.20;;;;;;;25.91;38.31;100858.13;103413;1297;69129;-87
2023/09/05 00:20:54;;;;;;;4.30;3.10;;;;;;;25.91;38.18;100849.36;103305;1300;69245;-87
2023/09/05 00:23:23;;;;;;;3.00;2.80;;;;;;;25.91;38.02;100843.23;103372;1297;69219;-88
2023/09/05 00:25:48;;;;;;;3.10;2.90;;;;;;;25.90;38.02;100840.81;103456;1297;70112;-87
2023/09/05 00:28:14;;;;;;;3.30;3.00;;;;;;;25.91;38.01;100833.64;103330;1299;68009;-87
2023/09/05 00:30:39;;;;;;;3.40;3.00;;;;;;;25.91;38.04;100838.90;103352;1300;69272;-88
2023/09/05 00:33:05;;;;;;;4.00;3.00;;;;;;;25.91;38.06;100846.64;103250;1299;69351;-87
2023/09/05 00:35:30;;;;;;;3.60;3.00;;;;;;;25.91;37.99;100851.17;103284;1301;69295;-87
2023/09/05 00:37:58;;;;;;;3.40;3.10;;;;;;;25.91;38.02;100855.30;103394;1299;69287;-88
2023/09/05 00:40:26;;;;;;;3.90;3.20;;;;;;;25.91;38.03;100854.99;103475;1299;69177;-88
2023/09/05 00:42:52;;;;;;;3.00;2.80;;;;;;;25.91;37.86;100851.90;103321;1300;73736;-87
2023/09/05 00:45:19;;;;;;;4.30;3.60;;;;;;;25.91;37.91;100849.48;103363;1302;69232;-87
2023/09/05 00:47:47;;;;;;;3.70;3.00;;;;;;;25.90;38.06;100844.79;103413;1299;69210;-88
2023/09/05 00:50:18;;;;;;;3.40;3.10;;;;;;;25.90;37.93;100848.19;103614;1299;69140;-88
2023/09/05 00:52:45;;;;;;;3.30;3.00;;;;;;;25.90;37.94;100846.73;104119;1299;69083;-88
2023/09/05 00:57:51;;;;;;;3.30;3.00;;;;;;;25.90;37.99;100839.94;103341;1302;69768;-88
2023/09/05 01:00:17;;;;;;;3.50;2.90;;;;;;;25.91;37.86;100838.54;103513;1301;69271;-87
2023/09/05 01:02:43;;;;;;;3.70;3.30;;;;;;;25.91;37.88;100841.84;103435;1297;69308;-87
2023/09/05 01:05:10;;;;;;;3.20;2.90;;;;;;;25.90;37.89;100847.22;103295;1299;69226;-88
2023/09/05 01:08:16;;;;;;;3.70;3.30;;;;;;;25.91;37.92;100844.06;103411;1301;69319;-87
2023/09/05 01:10:55;;;;;;;3.40;3.10;;;;;;;25.90;37.89;100842.31;103464;1302;69241;-88
2023/09/05 01:13:27;;;;;;;3.40;3.10;;;;;;;25.90;38.00;100840.16;103639;1299;69363;-89
2023/09/05 01:15:53;;;;;;;3.60;3.30;;;;;;;25.90;37.76;100838.86;103286;1299;69287;-88
2023/09/05 01:18:19;;;;;;;3.90;3.30;;;;;;;25.89;37.90;100844.55;103385;1297;69775;-87
2023/09/05 01:21:16;;;;;;;4.80;3.00;;;;;;;25.90;37.79;100842.02;103512;1299;69284;-88
2023/09/05 01:23:49;;;;;;;3.50;3.20;;;;;;;25.89;37.82;100839.81;103461;1304;69215;-88
2023/09/05 01:26:14;;;;;;;3.30;3.00;;;;;;;25.90;37.68;100843.09;103380;1297;69207;-87
2023/09/05 01:28:41;;;;;;;3.40;3.10;;;;;;;25.89;37.70;100854.28;103360;1302;69352;-87
2023/09/05 01:33:46;;;;;;;3.40;3.10;;;;;;;25.89;37.58;100855.95;103396;1302;74508;-87
2023/09/05 01:36:12;;;;;;;3.40;3.10;;;;;;;25.88;37.86;100853.78;103388;1302;69351;-87
2023/09/05 01:38:38;;;;;;;3.40;3.10;;;;;;;25.89;37.85;100859.18;103372;1302;69329;-87
2023/09/05 01:41:03;;;;;;;3.50;3.10;;;;;;;25.88;37.74;100856.48;103385;1299;69268;-88
2023/09/05 01:43:29;;;;;;;3.60;3.20;;;;;;;25.89;37.79;100854.35;103443;1299;69259;-88
2023/09/05 01:45:55;;;;;;;5.10;3.20;;;;;;;25.89;37.62;100853.20;103164;1303;69251;-87
2023/09/05 01:48:20;;;;;;;4.00;3.20;;;;;;;25.89;37.63;100846.81;103319;1300;69206;-87
2023/09/05 01:50:46;;;;;;;3.80;3.40;;;;;;;25.89;37.50;100844.30;103403;1299;67370;-87
2023/09/05 01:53:12;;;;;;;3.10;2.90;;;;;;;25.89;37.54;100842.48;103620;1300;69255;-87
2023/09/05 01:55:37;;;;;;;3.30;3.00;;;;;;;25.88;37.44;100838.17;103460;1298;69438;-88
2023/09/05 02:00:43;;;;;;;3.70;3.20;;;;;;;25.88;37.47;100842.40;103405;1299;69120;-87
2023/09/05 02:03:10;;;;;;;4.60;2.90;;;;;;;25.89;37.54;100844.30;103441;1302;69269;-87
2023/09/05 02:05:36;;;;;;;4.00;2.90;;;;;;;25.88;37.61;100846.21;103407;1302;73483;-87
2023/09/05 02:08:03;;;;;;;3.80;3.40;;;;;;;25.88;37.67;100846.67;103477;1300;69300;-88
2023/09/05 02:10:30;;;;;;;3.60;3.30;;;;;;;25.88;37.45;100849.61;103330;1298;69309;-87
2023/09/05 02:15:36;;;;;;;3.90;3.20;;;;;;;25.88;37.57;100850.45;103354;1300;69226;-87
2023/09/05 02:18:02;;;;;;;4.40;2.90;;;;;;;25.88;37.51;100855.70;103359;1299;69252;-87
2023/09/05 02:20:27;;;;;;;3.40;3.10;;;;;;;25.88;37.45;100861.23;103356;1302;69266;-87
2023/09/05 02:22:53;;;;;;;3.00;2.70;;;;;;;25.88;37.44;100865.08;103136;1305;69211;-87
2023/09/05 02:25:19;;;;;;;4.00;3.10;;;;;;;25.87;37.41;100865.96;103371;1300;69284;-88
2023/09/05 02:27:45;;;;;;;4.60;3.20;;;;;;;25.87;37.45;100868.08;103323;1300;69309;-87
2023/09/05 02:30:11;;;;;;;3.70;3.40;;;;;;;25.88;37.46;100869.83;103375;1300;69174;-88
2023/09/05 02:32:36;;;;;;;3.30;3.00;;;;;;;25.87;37.56;100875.45;103423;1299;69224;-88
2023/09/05 02:35:03;;;;;;;3.70;3.00;;;;;;;25.87;37.50;100877.98;103320;1298;69245;-87
2023/09/05 02:37:29;;;;;;;4.10;3.30;;;;;;;25.87;37.46;100887.52;103497;1299;69329;-88
2023/09/05 02:40:07;;;;;;;3.30;3.00;;;;;;;25.86;37.38;100894.92;103887;1299;69300;-93
2023/09/05 02:42:33;;;;;;;3.30;3.00;;;;;;;25.86;37.53;100906.41;103218;1300;69074;-88
2023/09/05 02:44:59;;;;;;;4.90;3.20;;;;;;;25.87;37.40;100909.02;103829;1300;69141;-88
2023/09/05 02:47:24;;;;;;;3.60;3.20;;;;;;;25.87;37.35;100911.13;104272;1299;69200;-88
2023/09/05 02:49:50;;;;;;;3.40;3.00;;;;;;;25.87;37.40;100912.48;103393;1302;69172;-87
2023/09/05 02:52:21;;;;;;;3.50;3.20;;;;;;;25.87;37.42;100913.61;103392;1305;69343;-88
2023/09/05 02:55:05;;;;;;;4.90;3.10;;;;;;;25.87;37.34;100913.45;103311;1299;69229;-91
2023/09/05 02:57:30;;;;;;;3.20;2.90;;;;;;;25.87;37.20;100917.22;103307;1299;69214;-87
2023/09/05 02:59:56;;;;;;;3.80;3.40;;;;;;;25.87;37.34;100908.15;103374;1300;69159;-88
2023/09/05 03:02:22;;;;;;;3.20;2.90;;;;;;;25.87;37.45;100904.75;103338;1299;69233;-87
2023/09/05 03:04:51;;;;;;;3.40;3.10;;;;;;;25.87;37.43;100902.48;103397;1299;69169;-88
2023/09/05 03:07:18;;;;;;;7.40;4.80;;;;;;;25.86;37.50;100898.92;103367;1299;69157;-87
2023/09/05 03:10:02;;;;;;;10.20;8.40;;;;;;;25.83;37.29;100900.97;103250;1302;69391;-92
2023/09/05 03:12:28;;;;;;;11.50;8.40;;;;;;;25.76;37.10;100895.62;103749;1299;69243;-88
2023/09/05 03:14:54;;;;;;;8.90;7.10;;;;;;;25.73;37.24;100903.23;103421;1301;69254;-88
2023/09/05 03:17:19;;;;;;;10.70;5.70;;;;;;;25.73;37.25;100904.98;103342;1299;69297;-88
2023/09/05 03:19:45;;;;;;;9.00;5.00;;;;;;;25.73;37.17;100907.91;103406;1300;69352;-87
2023/09/05 03:22:11;;;;;;;8.40;4.70;;;;;;;25.74;37.40;100912.09;103334;1300;69243;-88
2023/09/05 03:24:36;;;;;;;13.90;5.10;;;;;;;25.74;37.58;100915.64;103116;1300;73561;-88
2023/09/05 03:27:02;;;;;;;10.20;5.10;;;;;;;25.74;37.53;100920.11;103212;1299;69389;-87
2023/09/05 03:29:28;;;;;;;9.00;4.60;;;;;;;25.75;37.87;100927.73;103147;1305;69223;-87
2023/09/05 03:31:53;;;;;;;13.70;5.30;;;;;;;25.76;37.74;100924.79;103154;1305;69298;-87
2023/09/05 03:34:19;;;;;;;10.60;4.90;;;;;;;25.77;37.64;100931.13;103327;1300;67298;-87
2023/09/05 03:36:49;;;;;;;14.70;12.10;;;;;;;25.76;37.61;100933.28;103229;1299;69197;-93
2023/09/05 03:39:15;;;;;;;30.30;25.00;;;;;;;25.76;37.77;100936.28;102957;1298;323347;-87
2023/09/05 03:41:41;;;;;;;24.10;21.20;;;;;;;25.75;37.60;100941.02;103366;1302;69291;-88
2023/09/05 03:44:06;;;;;;;18.70;15.40;;;;;;;25.74;37.51;100940.67;103357;1300;69233;-87
2023/09/05 03:46:32;;;;;;;17.60;13.70;;;;;;;25.74;37.31;100940.48;103288;1302;68267;-87
2023/09/05 03:48:57;;;;;;;10.90;9.50;;;;;;;25.74;37.48;100938.48;103431;1299;69701;-88
2023/09/05 03:51:23;;;;;;;10.80;7.50;;;;;;;25.73;37.51;100934.41;103243;1299;69394;-87
2023/09/05 03:53:49;;;;;;;10.80;9.10;;;;;;;25.73;37.32;100939.73;103352;1299;69242;-87
2023/09/05 03:56:15;;;;;;;13.20;10.60;;;;;;;25.72;37.18;100939.33;103393;1299;69163;-87
2023/09/05 03:58:41;;;;;;;10.10;8.40;;;;;;;25.71;37.39;100945.88;103349;1302;70682;-87
2023/09/05 04:01:25;;;;;;;9.70;7.60;;;;;;;25.70;37.12;100948.67;103259;1299;69306;-88
2023/09/05 04:03:51;;;;;;;7.90;6.20;;;;;;;25.69;37.17;100950.38;103362;1299;69234;-88
2023/09/05 04:06:17;;;;;;;8.00;5.90;;;;;;;25.69;37.29;100954.05;103245;1299;69304;-87
2023/09/05 04:08:43;;;;;;;8.20;6.10;;;;;;;25.68;37.31;100952.83;103415;1299;69303;-87
2023/09/05 04:11:08;;;;;;;9.40;5.10;;;;;;;25.67;37.15;100957.82;103435;1298;69278;-87
2023/09/05 04:13:34;;;;;;;9.90;5.70;;;;;;;25.67;37.37;100962.09;103315;1300;69288;-87
2023/09/05 04:16:05;;;;;;;9.10;5.20;;;;;;;25.65;37.52;100968.36;103407;1300;69287;-87
2023/09/05 04:18:46;;;;;;;10.80;5.10;;;;;;;25.60;37.31;100967.54;103167;1299;74550;-92
2023/09/05 04:21:12;;;;;;;6.80;4.90;;;;;;;25.57;37.33;100966.91;103097;1302;69340;-87
2023/09/05 04:23:38;;;;;;;7.00;4.20;;;;;;;25.56;37.37;100973.05;103323;1299;69278;-87
2023/09/05 04:26:03;;;;;;;7.50;4.30;;;;;;;25.56;37.28;100975.47;103243;1300;69271;-87
2023/09/05 04:28:30;;;;;;;10.40;4.80;;;;;;;25.56;37.28;100974.95;103215;1302;69278;-87
2023/09/05 04:30:56;;;;;;;6.50;4.00;;;;;;;25.55;37.38;100980.83;103212;1301;69278;-87
2023/09/05 04:36:08;;;;;;;8.50;4.70;;;;;;;25.54;37.24;100981.52;103301;1299;68164;-87
2023/09/05 04:38:35;;;;;;;7.40;4.30;;;;;;;25.54;37.44;100986.26;103239;1298;69249;-87
2023/09/05 04:41:02;;;;;;;11.20;4.90;;;;;;;25.55;37.44;100983.71;103870;1299;69618;-87
2023/09/05 04:43:44;;;;;;;5.80;4.30;;;;;;;25.55;37.22;100980.89;103557;1299;74524;-88
2023/09/05 04:46:09;;;;;;;6.40;4.40;;;;;;;25.50;37.17;100980.08;104215;1299;69371;-89
2023/09/05 04:48:35;;;;;;;7.70;4.10;;;;;;;25.36;37.20;100978.65;103402;1298;69323;-89
2023/09/05 04:51:04;;;;;;;5.30;4.40;;;;;;;25.27;37.30;100974.81;103483;1302;69233;-89
2023/09/05 04:53:30;;;;;;;4.80;4.30;;;;;;;25.18;37.50;100968.63;103728;1300;69278;-88
2023/09/05 04:55:59;;;;;;;9.60;4.20;;;;;;;25.13;37.80;100967.29;103502;1299;69237;-88
2023/09/05 04:58:27;;;;;;;9.30;4.10;;;;;;;25.09;37.88;100966.59;103436;1299;69582;-89
2023/09/05 05:00:56;;;;;;;7.70;4.00;;;;;;;25.04;37.75;100962.63;103702;1299;69130;-89
2023/09/05 05:03:32;;;;;;;9.90;4.40;;;;;;;24.99;37.65;100962.79;103615;1299;69289;-94
2023/09/05 05:05:58;;;;;;;11.30;4.60;;;;;;;24.96;38.07;100960.80;103447;1300;69176;-88
2023/09/05 05:08:24;;;;;;;14.30;4.90;;;;;;;24.98;38.00;100957.84;103630;1300;69233;-88
2023/09/05 05:10:50;;;;;;;7.90;4.10;;;;;;;25.00;38.18;100956.80;103393;1299;69281;-88
2023/09/05 05:13:15;;;;;;;10.40;4.40;;;;;;;24.99;38.05;100956.30;103917;1300;66953;-89
2023/09/05 05:15:43;;;;;;;9.10;4.30;;;;;;;24.96;38.17;100955.23;103883;1298;68231;-89
2023/09/05 05:18:09;;;;;;;8.60;4.30;;;;;;;24.91;37.92;100957.71;103459;1299;73738;-89
2023/09/05 05:20:34;;;;;;;9.10;4.00;;;;;;;24.82;38.21;100959.57;103795;1302;69153;-89
2023/09/05 05:23:00;;;;;;;11.00;4.40;;;;;;;24.80;38.23;100962.23;103539;1299;69431;-89
2023/09/05 05:25:25;;;;;;;6.90;4.30;;;;;;;24.77;38.24;100961.63;103637;1299;69298;-89
2023/09/05 05:27:51;;;;;;;7.60;4.40;;;;;;;24.75;38.24;100963.20;103679;1298;67365;-89
2023/09/05 05:30:25;;;;;;;10.20;4.80;;;;;;;24.74;38.36;100961.30;103530;1300;69254;-94
2023/09/05 05:32:50;;;;;;;8.10;4.50;;;;;;;24.72;38.38;100960.89;103407;1299;69586;-89
2023/09/05 05:35:16;;;;;;;12.60;5.80;;;;;;;24.68;38.31;100960.13;103663;1299;69255;-89
2023/09/05 05:37:42;;;;;;;9.40;4.80;;;;;;;24.67;38.40;100955.09;103505;1301;69232;-88
2023/09/05 05:40:10;;;;;;;8.10;4.40;;;;;;;24.68;38.49;100953.28;103545;1299;69309;-89
2023/09/05 05:42:36;;;;;;;8.00;4.50;;;;;;;24.70;38.44;100953.64;103744;1300;69387;-89
2023/09/05 05:45:02;;;;;;;5.20;4.20;;;;;;;24.70;38.46;100949.21;103389;1299;69364;-89
2023/09/05 05:47:28;;;;;;;10.10;4.40;;;;;;;24.71;38.52;100951.98;103623;1299;68065;-90
2023/09/05 05:49:53;;;;;;;9.20;4.40;;;;;;;24.70;38.27;100949.72;103608;1299;69096;-89
2023/09/05 05:52:19;;;;;;;7.60;4.80;;;;;;;24.70;38.68;100948.64;103571;1299;69303;-89
2023/09/05 05:54:44;;;;;;;6.40;4.30;;;;;;;24.74;38.55;100949.92;103286;1299;69786;-89
2023/09/05 05:59:50;;;;;;;6.80;5.30;;;;;;;24.85;38.49;100944.47;103873;1298;67363;-89
2023/09/05 06:02:16;;;;;;;7.70;5.00;;;;;;;24.91;38.52;100939.11;104224;1297;69286;-89
2023/09/05 06:04:41;;;;;;;6.80;5.10;;;;;;;24.98;38.70;100940.55;104195;1296;69368;-89
2023/09/05 06:07:07;;;;;;;6.80;5.90;;;;;;;25.04;38.39;100946.86;104271;1293;69325;-89
2023/09/05 06:09:36;;;;;;;6.60;5.90;;;;;;;25.11;38.38;100949.23;104321;1289;67316;-90
2023/09/05 06:14:35;;;;;;;16.20;9.40;;;;;;;25.19;38.30;100952.34;104373;1297;72922;-89
2023/09/05 06:17:01;;;;;;;15.10;9.20;;;;;;;25.19;38.36;100958.84;104109;1297;69275;-89
2023/09/05 06:19:27;;;;;;;7.10;5.40;;;;;;;25.17;38.36;100957.11;104234;1295;67614;-90
2023/09/05 06:21:53;;;;;;;7.60;4.70;;;;;;;25.16;37.99;100948.98;104151;1293;69211;-89
2023/09/05 06:24:22;;;;;;;9.00;4.30;;;;;;;25.14;37.78;100944.83;104179;1290;69348;-89
2023/09/05 06:26:48;;;;;;;9.30;6.30;;;;;;;25.13;38.01;100943.02;103622;1299;69281;-87
2023/09/05 06:29:13;;;;;;;9.90;5.30;;;;;;;25.12;37.77;100954.63;103504;1299;67455;-87
2023/09/05 06:31:39;;;;;;;18.90;16.70;;;;;;;25.08;37.81;100954.50;103363;1299;69290;-87
2023/09/05 06:34:05;;;;;;;17.90;12.40;;;;;;;25.07;37.65;100952.20;103590;1299;69290;-87
2023/09/05 06:36:31;;;;;;;14.30;9.70;;;;;;;25.06;37.40;100951.69;103675;1299;69150;-87
2023/09/05 06:41:31;;;;;;;12.40;6.50;;;;;;;25.05;37.22;100962.20;103679;1297;69181;-87
2023/09/05 06:44:00;;;;;;;8.20;6.10;;;;;;;25.04;37.25;100962.63;104074;1302;68296;-87
2023/09/05 06:46:26;;;;;;;14.80;6.10;;;;;;;25.04;37.20;100963.34;104027;1302;69319;-89
2023/09/05 06:48:52;;;;;;;14.00;4.50;;;;;;;25.05;37.01;100969.37;103923;1296;69286;-87
2023/09/05 06:51:18;;;;;;;10.80;3.90;;;;;;;25.04;37.19;100965.77;103864;1296;69322;-87
2023/09/05 06:53:43;;;;;;;6.80;3.90;;;;;;;25.06;37.04;100969.66;103796;1297;69356;-86
2023/09/05 06:56:09;;;;;;;10.70;3.90;;;;;;;25.05;36.87;100976.92;103574;1297;67416;-88
2023/09/05 06:58:35;;;;;;;14.20;3.90;;;;;;;25.06;37.10;100977.39;103584;1297;69209;-86
2023/09/05 07:01:04;;;;;;;9.30;3.60;;;;;;;25.07;36.94;100981.66;103698;1297;69124;-86
2023/09/05 07:03:31;;;;;;;7.40;3.50;;;;;;;25.07;37.10;100984.02;103607;1297;69179;-86
2023/09/05 07:06:05;;;;;;;14.00;3.60;;;;;;;25.08;36.80;100990.65;103726;1302;72717;-90
2023/09/05 07:08:31;;;;;;;27.20;4.20;;;;;;;25.10;36.89;101000.70;103804;1297;69912;-85
2023/09/05 07:10:57;;;;;;;5.60;3.10;;;;;;;25.10;36.96;101006.24;104614;1301;67899;-86
2023/09/05 07:13:22;;;;;;;12.10;3.50;;;;;;;25.08;36.74;101004.77;104973;1296;69093;-86
2023/09/05 07:15:48;;;;;;;14.50;3.30;;;;;;;25.08;36.74;101007.70;103971;1297;67668;-88
2023/09/05 07:18:14;;;;;;;7.90;3.50;;;;;;;25.07;36.80;101011.41;104141;1298;69851;-87
2023/09/05 07:20:39;;;;;;;5.50;3.10;;;;;;;25.08;36.68;101013.26;103926;1296;70329;-87
2023/09/05 07:23:05;;;;;;;8.00;2.90;;;;;;;25.10;36.49;101015.05;103807;1297;72448;-86
2023/09/05 07:25:31;;;;;;;8.20;3.50;;;;;;;25.10;36.74;101018.19;103857;1297;69259;-87
2023/09/05 07:27:57;;;;;;;7.20;3.30;;;;;;;25.12;36.57;101013.13;104046;1297;69094;-87
2023/09/05 07:30:23;;;;;;;11.20;3.10;;;;;;;25.14;36.56;101020.88;103720;1296;69127;-87
2023/09/05 07:35:27;;;;;;;10.40;3.30;;;;;;;25.14;36.62;101023.51;103588;1300;69170;-87
2023/09/05 07:37:53;;;;;;;7.50;3.20;;;;;;;25.15;36.33;101030.45;103546;1305;69352;-86
2023/09/05 07:40:18;;;;;;;8.30;3.30;;;;;;;25.16;36.33;101033.02;103489;1300;69286;-87
2023/09/05 07:42:44;;;;;;;6.30;2.80;;;;;;;25.18;36.48;101031.24;103365;1305;69252;-87
2023/09/05 07:45:10;;;;;;;9.70;3.10;;;;;;;25.21;36.44;101032.90;103589;1299;69317;-86
2023/09/05 07:47:36;;;;;;;9.50;3.20;;;;;;;25.24;36.65;101036.39;103140;1299;69095;-87
2023/09/05 07:50:02;;;;;;;8.90;3.40;;;;;;;25.28;36.61;101031.67;103474;1300;69243;-87
2023/09/05 07:52:27;;;;;;;14.30;7.30;;;;;;;25.29;36.58;101033.77;103342;1306;69681;-86
2023/09/05 07:54:53;;;;;;;7.50;4.50;;;;;;;25.29;36.23;101029.23;103713;1299;69730;-87
2023/09/05 07:57:18;;;;;;;10.70;3.20;;;;;;;25.28;36.27;101027.75;103655;1299;69258;-86
2023/09/05 07:59:53;;;;;;;6.70;3.20;;;;;;;25.29;36.04;101026.10;103490;1299;69042;-92
2023/09/05 08:02:19;;;;;;;8.40;2.80;;;;;;;25.29;35.99;101025.73;103487;1305;69128;-86
2023/09/05 08:04:45;;;;;;;9.20;3.00;;;;;;;25.30;35.93;101029.19;103667;1302;69103;-87
2023/09/05 08:07:11;;;;;;;9.20;3.00;;;;;;;25.30;36.04;101040.04;103524;1300;69217;-86
2023/09/05 08:09:36;;;;;;;6.90;3.10;;;;;;;25.32;36.19;101045.70;103350;1300;69170;-87
2023/09/05 08:12:02;;;;;;;10.00;3.30;;;;;;;25.33;36.26;101041.66;103690;1299;69233;-87
2023/09/05 08:14:28;;;;;;;15.80;3.10;;;;;;;25.35;36.04;101021.35;103328;1301;69564;-86
2023/09/05 08:16:54;;;;;;;14.40;3.50;;;;;;;25.36;36.00;101019.49;103304;1302;69174;-86
2023/09/05 08:19:20;;;;;;;11.70;2.90;;;;;;;25.38;35.76;101014.23;103468;1299;69140;-87
2023/09/05 08:21:46;;;;;;;12.70;2.70;;;;;;;25.38;35.38;101013.15;103584;1299;69223;-87
2023/09/05 08:24:11;;;;;;;11.10;2.30;;;;;;;25.39;35.31;101003.70;103464;1299;67299;-87
2023/09/05 08:26:46;;;;;;;10.00;2.70;;;;;;;25.40;34.99;100995.61;103342;1300;69268;-91
2023/09/05 08:29:14;;;;;;;10.30;3.10;;;;;;;25.41;35.14;100993.68;103517;1300;69177;-87
2023/09/05 08:31:39;;;;;;;11.30;3.50;;;;;;;25.43;35.02;100989.56;103437;1305;69252;-86
2023/09/05 08:34:05;;;;;;;11.60;3.90;;;;;;;25.46;35.14;100989.59;103561;1302;67925;-88
2023/09/05 08:36:31;;;;;;;12.70;4.50;;;;;;;25.48;35.36;100992.92;103789;1300;69294;-88
2023/09/05 08:38:57;;;;;;;18.10;5.10;;;;;;;25.49;35.22;100983.54;103731;1299;69111;-86
2023/09/05 08:41:23;;;;;;;10.60;4.40;;;;;;;25.50;35.12;100974.61;103403;1299;69180;-87
2023/09/05 08:43:49;;;;;;;13.20;4.40;;;;;;;25.52;35.22;100970.04;103536;1299;70025;-86
2023/09/05 08:46:15;;;;;;;12.50;4.70;;;;;;;25.55;35.22;100970.79;103424;1300;66937;-86
2023/09/05 08:48:40;;;;;;;9.00;4.50;;;;;;;25.58;35.28;100976.33;103377;1300;69307;-86
2023/09/05 08:51:06;;;;;;;5.90;4.00;;;;;;;25.60;35.45;100976.20;103524;1300;69223;-87
2023/09/05 08:56:11;;;;;;;10.10;3.50;;;;;;;25.63;35.32;100976.17;103659;1299;69188;-88
2023/09/05 08:58:37;;;;;;;12.60;3.80;;;;;;;25.63;35.24;100975.44;103697;1299;69328;-88
2023/09/05 09:01:03;;;;;;;9.90;3.00;;;;;;;25.65;35.48;100974.33;103312;1302;69400;-88
2023/09/05 09:03:32;;;;;;;8.30;3.30;;;;;;;25.65;35.38;100971.80;103674;1302;69322;-89
2023/09/05 09:05:57;;;;;;;9.10;3.30;;;;;;;25.66;35.28;100966.80;103281;1303;69294;-87
2023/09/05 09:08:26;;;;;;;5.70;3.40;;;;;;;25.68;35.33;100965.89;103314;1300;69268;-87
2023/09/05 09:11:07;;;;;;;9.00;3.30;;;;;;;25.69;35.44;100957.33;103520;1303;69193;-87
2023/09/05 09:13:33;;;;;;;13.10;3.60;;;;;;;25.70;35.37;100977.42;103634;1301;73202;-88
2023/09/05 09:16:00;;;;;;;6.30;3.20;;;;;;;25.72;35.37;100974.63;103487;1298;69259;-87
2023/09/05 09:18:26;;;;;;;8.50;3.30;;;;;;;25.71;35.11;100968.00;103500;1305;69223;-87
2023/09/05 09:20:52;;;;;;;11.90;3.00;;;;;;;25.71;35.10;100957.23;103494;1305;69349;-88
2023/09/05 09:23:38;;;;;;;9.60;3.00;;;;;;;25.71;35.06;100961.23;103378;1299;69246;-88
2023/09/05 09:26:04;;;;;;;11.20;2.80;;;;;;;25.71;35.25;100969.48;103419;1302;74484;-87
2023/09/05 09:28:32;;;;;;;9.40;3.40;;;;;;;25.72;35.21;100982.03;103390;1302;69298;-88
2023/09/05 09:30:59;;;;;;;6.60;3.10;;;;;;;25.72;35.26;100984.27;103459;1304;69296;-87
2023/09/05 09:33:24;;;;;;;9.20;3.30;;;;;;;25.72;35.19;100980.20;103564;1300;69243;-87
2023/09/05 09:36:16;;;;;;;6.40;3.00;;;;;;;25.73;35.21;100986.52;103483;1305;69294;-87
2023/09/05 09:38:43;;;;;;;7.70;2.90;;;;;;;25.73;35.08;100992.04;103435;1303;74622;-87
2023/09/05 09:41:12;;;;;;;6.80;2.80;;;;;;;25.73;35.07;100992.50;103184;1305;69155;-87
2023/09/05 09:43:40;;;;;;;8.80;2.90;;;;;;;25.73;34.99;100988.02;103258;1300;67744;-87
2023/09/05 09:46:08;;;;;;;7.10;2.80;;;;;;;25.75;35.01;100986.45;103272;1303;69297;-87
2023/09/05 09:48:35;;;;;;;7.50;3.20;;;;;;;25.75;34.91;100979.84;103204;1302;73636;-88
2023/09/05 09:51:02;;;;;;;5.30;2.90;;;;;;;25.77;34.94;100981.09;103470;1300;73461;-87
2023/09/05 09:53:30;;;;;;;6.10;2.90;;;;;;;25.78;34.98;100986.75;103342;1300;69180;-88
2023/09/05 09:55:56;;;;;;;7.10;3.40;;;;;;;25.80;34.77;100986.06;103616;1302;67664;-88
2023/09/05 09:58:22;;;;;;;7.30;3.10;;;;;;;25.81;35.07;100992.02;103464;1302;69281;-88
2023/09/05 10:00:48;;;;;;;7.20;3.40;;;;;;;25.82;34.79;100985.32;103438;1305;69289;-88
2023/09/05 10:03:13;;;;;;;6.60;3.20;;;;;;;25.83;34.94;100982.02;103280;1299;70208;-87
2023/09/05 10:05:41;;;;;;;11.00;3.20;;;;;;;25.84;34.95;100981.16;103450;1299;69147;-87
2023/09/05 10:08:10;;;;;;;5.20;2.80;;;;;;;25.85;34.75;100979.98;103283;1299;69060;-86
2023/09/05 10:10:38;;;;;;;6.20;2.90;;;;;;;25.85;34.70;100978.02;103451;1300;69291;-88
2023/09/05 10:13:05;;;;;;;7.80;3.00;;;;;;;25.86;34.76;100987.28;103608;1299;69166;-88
2023/09/05 10:15:31;;;;;;;4.50;2.80;;;;;;;25.86;34.62;100984.39;104033;1299;74878;-88
2023/09/05 10:17:59;;;;;;;10.30;2.70;;;;;;;25.88;34.78;100983.55;103516;1299;69224;-88
2023/09/05 10:20:25;;;;;;;9.20;3.00;;;;;;;25.89;34.84;100990.08;103428;1299;69956;-86
2023/09/05 10:22:53;;;;;;;6.20;2.90;;;;;;;25.90;34.78;100979.96;103138;1300;69318;-85
2023/09/05 10:25:18;;;;;;;5.20;3.00;;;;;;;25.91;34.80;100984.38;103243;1299;69604;-85
2023/09/05 10:27:44;;;;;;;6.80;3.20;;;;;;;25.92;34.80;100987.66;103302;1302;69269;-86
2023/09/05 10:30:12;;;;;;;7.10;2.70;;;;;;;25.92;34.96;101000.31;103187;1300;69255;-86
2023/09/05 10:32:42;;;;;;;8.00;3.20;;;;;;;25.92;34.97;100998.80;103626;1299;69327;-86
2023/09/05 10:35:23;;;;;;;5.00;3.00;;;;;;;25.92;34.82;101001.95;103595;1300;69247;-91
2023/09/05 10:37:55;;;;;;;5.70;3.00;;;;;;;25.92;34.84;100999.67;103457;1299;69532;-86
2023/09/05 10:40:31;;;;;;;7.30;2.80;;;;;;;25.93;34.91;101003.59;103723;1300;73608;-86
2023/09/05 10:42:57;;;;;;;5.80;3.20;;;;;;;25.94;34.89;101009.30;103961;1299;69208;-86
2023/09/05 10:45:22;;;;;;;4.30;2.80;;;;;;;25.95;34.87;101007.90;104351;1299;69306;-86
2023/09/05 10:47:53;;;;;;;5.00;3.10;;;;;;;25.96;34.79;101007.89;104109;1300;67436;-86
2023/09/05 10:50:23;;;;;;;5.50;2.90;;;;;;;25.97;34.76;101014.07;105024;1300;67415;-87
2023/09/05 10:53:27;;;;;;;7.90;3.00;;;;;;;25.99;34.71;101016.52;104128;1299;75336;-86
2023/09/05 10:55:54;;;;;;;5.70;2.80;;;;;;;25.99;34.73;101011.58;103393;1299;69140;-88
2023/09/05 10:58:40;;;;;;;5.10;2.90;;;;;;;26.00;34.81;101010.53;103713;1300;69177;-86
2023/09/05 11:01:29;;;;;;;8.60;3.00;;;;;;;26.01;34.80;101012.47;104269;1299;69296;-86
2023/09/05 11:04:03;;;;;;;8.20;3.00;;;;;;;26.01;34.77;101005.19;103720;1298;69194;-85
2023/09/05 11:06:31;;;;;;;5.90;3.00;;;;;;;26.02;34.81;101013.94;103353;1299;74457;-85
2023/09/05 11:08:59;;;;;;;5.70;2.60;;;;;;;26.03;34.71;101006.08;103335;1302;72985;-86
2023/09/05 11:11:27;;;;;;;5.60;2.70;;;;;;;26.04;34.66;101007.73;103272;1300;69248;-85
2023/09/05 11:13:54;;;;;;;4.40;2.80;;;;;;;26.05;34.66;101005.81;103323;1300;69589;-86
2023/09/05 11:16:20;;;;;;;3.60;2.40;;;;;;;26.04;34.79;101004.94;103482;1299;69195;-86
2023/09/05 11:18:52;;;;;;;6.40;2.80;;;;;;;26.05;34.59;101003.49;103224;1304;69305;-85
2023/09/05 11:21:22;;;;;;;3.90;2.80;;;;;;;26.06;34.71;101012.55;103403;1300;69256;-86
2023/09/05 11:23:52;;;;;;;6.60;2.60;;;;;;;26.07;34.63;101007.68;103373;1300;69307;-86
2023/09/05 11:26:18;;;;;;;3.40;2.30;;;;;;;26.08;34.54;101001.39;103393;1299;69185;-87
2023/09/05 11:28:45;;;;;;;5.00;2.70;;;;;;;26.09;34.48;100997.56;103291;1300;69438;-86
2023/09/05 11:31:11;;;;;;;6.80;2.90;;;;;;;26.10;34.68;100996.94;103674;1299;69229;-85
2023/09/05 11:33:37;;;;;;;4.70;2.80;;;;;;;26.10;34.77;100990.84;103613;1305;69329;-86
2023/09/05 11:36:06;;;;;;;6.50;3.00;;;;;;;26.11;34.61;100992.64;103606;1300;69322;-87
2023/09/05 11:38:47;;;;;;;7.20;3.00;;;;;;;26.10;34.54;100988.23;103677;1301;69246;-86
2023/09/05 11:41:13;;;;;;;6.00;3.00;;;;;;;26.11;34.66;100981.30;103852;1300;69098;-87
2023/09/05 11:46:24;;;;;;;3.60;2.70;;;;;;;26.13;34.61;100973.71;103715;1301;69169;-86